sensor_id;sensor_type;location;lat;lon;timestamp;temperature;humidity
19060;DHT22;9663;48.996;8.334;2023-03-14T00:02:07;15.10;55.20
19060;DHT22;9663;48.996;8.334;2023-03-14T00:04:33;16.00;55.50
19060;DHT22;9663;48.996;8.334;2023-03-14T00:06:58;16.10;55.40
19060;DHT22;9663;48.996;8.334;2023-03-14T00:09:24;16.50;55.70
19060;DHT22;9663;48.996;8.334;2023-03-14T00:11:52;15.70;55.40
19060;DHT22;9663;48.996;8.334;2023-03-14T00:14:18;14.90;54.90
19060;DHT22;9663;48.996;8.334;2023-03-14T00:16:47;15.00;55.20
19060;DHT22;9663;48.996;8.334;2023-03-14T00:19:13;14.40;54.80
19060;DHT22;9663;48.996;8.334;2023-03-14T00:21:39;16.20;55.60
19060;DHT22;9663;48.996;8.334;2023-03-14T00:24:07;14.60;54.90
19060;DHT22;9663;48.996;8.334;2023-03-14T00:26:33;16.30;55.70
19060;DHT22;9663;48.996;8.334;2023-03-14T00:28:59;14.30;54.80
19060;DHT22;9663;48.996;8.334;2023-03-14T00:31:24;14.10;54.60
19060;DHT22;9663;48.996;8.334;2023-03-14T00:33:52;15.00;55.10
19060;DHT22;9663;48.996;8.334;2023-03-14T00:36:18;15.10;55.10
19060;DHT22;9663;48.996;8.334;2023-03-14T00:38:47;17.00;56.10
19060;DHT22;9663;48.996;8.334;2023-03-14T00:41:18;15.40;55.40
19060;DHT22;9663;48.996;8.334;2023-03-14T00:43:47;13.50;54.40
19060;DHT22;9663;48.996;8.334;2023-03-14T00:46:13;16.40;55.80
19060;DHT22;9663;48.996;8.334;2023-03-14T00:48:39;14.50;55.10
19060;DHT22;9663;48.996;8.334;2023-03-14T00:51:06;14.90;55.10
19060;DHT22;9663;48.996;8.334;2023-03-14T00:53:37;15.50;55.70
19060;DHT22;9663;48.996;8.334;2023-03-14T00:56:06;15.90;56.00
19060;DHT22;9663;48.996;8.334;2023-03-14T00:58:33;15.10;55.30
19060;DHT22;9663;48.996;8.334;2023-03-14T01:00:59;16.40;56.10
19060;DHT22;9663;48.996;8.334;2023-03-14T01:03:24;15.20;56.10
19060;DHT22;9663;48.996;8.334;2023-03-14T01:05:50;14.90;55.50
19060;DHT22;9663;48.996;8.334;2023-03-14T01:08:17;15.10;55.70
19060;DHT22;9663;48.996;8.334;2023-03-14T01:10:42;17.10;56.70
19060;DHT22;9663;48.996;8.334;2023-03-14T01:13:09;15.40;55.70
19060;DHT22;9663;48.996;8.334;2023-03-14T01:15:36;14.60;55.90
19060;DHT22;9663;48.996;8.334;2023-03-14T01:18:03;16.40;56.30
19060;DHT22;9663;48.996;8.334;2023-03-14T01:20:29;14.60;55.50
19060;DHT22;9663;48.996;8.334;2023-03-14T01:22:55;15.40;55.80
19060;DHT22;9663;48.996;8.334;2023-03-14T01:25:21;15.20;55.70
19060;DHT22;9663;48.996;8.334;2023-03-14T01:27:46;15.40;56.20
19060;DHT22;9663;48.996;8.334;2023-03-14T01:30:12;15.10;55.90
19060;DHT22;9663;48.996;8.334;2023-03-14T01:32:39;15.00;55.70
19060;DHT22;9663;48.996;8.334;2023-03-14T01:35:05;15.10;56.00
19060;DHT22;9663;48.996;8.334;2023-03-14T01:37:32;15.10;55.90
19060;DHT22;9663;48.996;8.334;2023-03-14T01:39:58;15.00;56.00
19060;DHT22;9663;48.996;8.334;2023-03-14T01:42:23;14.90;56.00
19060;DHT22;9663;48.996;8.334;2023-03-14T01:45:00;16.50;56.60
19060;DHT22;9663;48.996;8.334;2023-03-14T01:47:27;13.80;55.70
19060;DHT22;9663;48.996;8.334;2023-03-14T01:50:02;15.70;56.60
19060;DHT22;9663;48.996;8.334;2023-03-14T01:52:40;15.00;56.20
19060;DHT22;9663;48.996;8.334;2023-03-14T01:55:15;14.50;56.40
19060;DHT22;9663;48.996;8.334;2023-03-14T01:57:47;15.30;56.30
19060;DHT22;9663;48.996;8.334;2023-03-14T02:00:20;16.40;57.20
19060;DHT22;9663;48.996;8.334;2023-03-14T02:02:50;14.90;56.50
19060;DHT22;9663;48.996;8.334;2023-03-14T02:05:25;14.90;56.70
19060;DHT22;9663;48.996;8.334;2023-03-14T02:07:55;14.20;56.30
19060;DHT22;9663;48.996;8.334;2023-03-14T02:10:25;14.30;56.30
19060;DHT22;9663;48.996;8.334;2023-03-14T02:12:55;15.80;57.20
19060;DHT22;9663;48.996;8.334;2023-03-14T02:15:24;14.70;56.80
19060;DHT22;9663;48.996;8.334;2023-03-14T02:17:51;14.60;56.50
19060;DHT22;9663;48.996;8.334;2023-03-14T02:20:26;14.60;56.10
19060;DHT22;9663;48.996;8.334;2023-03-14T02:23:04;14.00;56.40
19060;DHT22;9663;48.996;8.334;2023-03-14T02:28:20;14.20;56.70
19060;DHT22;9663;48.996;8.334;2023-03-14T02:30:46;13.50;56.20
19060;DHT22;9663;48.996;8.334;2023-03-14T02:33:17;16.10;57.50
19060;DHT22;9663;48.996;8.334;2023-03-14T02:38:33;14.30;56.80
19060;DHT22;9663;48.996;8.334;2023-03-14T02:41:03;14.10;56.80
19060;DHT22;9663;48.996;8.334;2023-03-14T02:43:29;14.30;57.10
19060;DHT22;9663;48.996;8.334;2023-03-14T02:45:55;14.70;57.40
19060;DHT22;9663;48.996;8.334;2023-03-14T02:48:31;14.00;57.10
19060;DHT22;9663;48.996;8.334;2023-03-14T02:51:02;15.10;57.80
19060;DHT22;9663;48.996;8.334;2023-03-14T02:53:34;14.60;57.10
19060;DHT22;9663;48.996;8.334;2023-03-14T02:56:01;13.90;56.70
19060;DHT22;9663;48.996;8.334;2023-03-14T02:58:27;14.80;57.20
19060;DHT22;9663;48.996;8.334;2023-03-14T03:00:53;14.10;57.00
19060;DHT22;9663;48.996;8.334;2023-03-14T03:03:19;14.00;56.90
19060;DHT22;9663;48.996;8.334;2023-03-14T03:05:52;14.50;57.30
19060;DHT22;9663;48.996;8.334;2023-03-14T03:08:20;14.10;57.00
19060;DHT22;9663;48.996;8.334;2023-03-14T03:10:48;14.50;57.00
19060;DHT22;9663;48.996;8.334;2023-03-14T03:13:14;14.10;57.00
19060;DHT22;9663;48.996;8.334;2023-03-14T03:15:40;14.50;57.30
19060;DHT22;9663;48.996;8.334;2023-03-14T03:18:07;14.10;56.70
19060;DHT22;9663;48.996;8.334;2023-03-14T03:20:33;14.60;57.20
19060;DHT22;9663;48.996;8.334;2023-03-14T03:22:59;14.40;57.10
19060;DHT22;9663;48.996;8.334;2023-03-14T03:25:25;14.20;57.10
19060;DHT22;9663;48.996;8.334;2023-03-14T03:27:51;15.00;57.50
19060;DHT22;9663;48.996;8.334;2023-03-14T03:30:17;14.50;57.40
19060;DHT22;9663;48.996;8.334;2023-03-14T03:32:43;13.70;56.80
19060;DHT22;9663;48.996;8.334;2023-03-14T03:35:09;14.70;57.50
19060;DHT22;9663;48.996;8.334;2023-03-14T03:37:35;14.90;57.40
19060;DHT22;9663;48.996;8.334;2023-03-14T03:40:02;15.50;57.60
19060;DHT22;9663;48.996;8.334;2023-03-14T03:42:31;14.60;57.10
19060;DHT22;9663;48.996;8.334;2023-03-14T03:45:00;13.80;56.60
19060;DHT22;9663;48.996;8.334;2023-03-14T03:47:26;16.20;57.80
19060;DHT22;9663;48.996;8.334;2023-03-14T03:49:52;14.30;56.40
19060;DHT22;9663;48.996;8.334;2023-03-14T03:52:18;14.20;56.90
19060;DHT22;9663;48.996;8.334;2023-03-14T03:54:44;13.90;56.70
19060;DHT22;9663;48.996;8.334;2023-03-14T03:57:10;13.80;56.80
19060;DHT22;9663;48.996;8.334;2023-03-14T03:59:35;15.70;57.60
19060;DHT22;9663;48.996;8.334;2023-03-14T04:02:01;13.10;56.30
19060;DHT22;9663;48.996;8.334;2023-03-14T04:04:27;15.20;57.30
19060;DHT22;9663;48.996;8.334;2023-03-14T04:06:52;13.60;56.40
19060;DHT22;9663;48.996;8.334;2023-03-14T04:09:18;15.50;57.40
19060;DHT22;9663;48.996;8.334;2023-03-14T04:11:44;14.70;56.80
19060;DHT22;9663;48.996;8.334;2023-03-14T04:14:09;14.70;56.80
19060;DHT22;9663;48.996;8.334;2023-03-14T04:16:35;14.20;56.60
19060;DHT22;9663;48.996;8.334;2023-03-14T04:19:01;14.10;56.40
19060;DHT22;9663;48.996;8.334;2023-03-14T04:21:27;13.70;56.20
19060;DHT22;9663;48.996;8.334;2023-03-14T04:23:53;14.20;56.40
19060;DHT22;9663;48.996;8.334;2023-03-14T04:26:19;14.70;56.70
19060;DHT22;9663;48.996;8.334;2023-03-14T04:28:44;14.40;56.80
19060;DHT22;9663;48.996;8.334;2023-03-14T04:31:18;14.20;56.30
19060;DHT22;9663;48.996;8.334;2023-03-14T04:33:46;14.20;56.80
19060;DHT22;9663;48.996;8.334;2023-03-14T04:36:12;14.30;56.90
19060;DHT22;9663;48.996;8.334;2023-03-14T04:38:38;14.10;56.80
19060;DHT22;9663;48.996;8.334;2023-03-14T04:41:04;14.30;56.90
19060;DHT22;9663;48.996;8.334;2023-03-14T04:43:30;13.90;56.30
19060;DHT22;9663;48.996;8.334;2023-03-14T04:45:56;13.30;56.00
19060;DHT22;9663;48.996;8.334;2023-03-14T04:48:24;13.60;56.60
19060;DHT22;9663;48.996;8.334;2023-03-14T04:50:50;14.30;57.10
19060;DHT22;9663;48.996;8.334;2023-03-14T04:53:17;13.30;56.70
19060;DHT22;9663;48.996;8.334;2023-03-14T04:55:48;14.20;57.00
19060;DHT22;9663;48.996;8.334;2023-03-14T04:58:15;14.20;57.20
19060;DHT22;9663;48.996;8.334;2023-03-14T05:00:41;13.90;57.00
19060;DHT22;9663;48.996;8.334;2023-03-14T05:03:06;15.20;57.70
19060;DHT22;9663;48.996;8.334;2023-03-14T05:05:32;12.70;56.40
19060;DHT22;9663;48.996;8.334;2023-03-14T05:07:58;14.40;57.20
19060;DHT22;9663;48.996;8.334;2023-03-14T05:10:23;14.20;57.20
19060;DHT22;9663;48.996;8.334;2023-03-14T05:12:49;14.60;57.10
19060;DHT22;9663;48.996;8.334;2023-03-14T05:15:15;14.80;56.60
19060;DHT22;9663;48.996;8.334;2023-03-14T05:17:40;14.20;57.00
19060;DHT22;9663;48.996;8.334;2023-03-14T05:20:06;14.00;57.00
19060;DHT22;9663;48.996;8.334;2023-03-14T05:22:38;14.20;56.70
19060;DHT22;9663;48.996;8.334;2023-03-14T05:25:05;14.10;56.60
19060;DHT22;9663;48.996;8.334;2023-03-14T05:27:32;14.20;56.60
19060;DHT22;9663;48.996;8.334;2023-03-14T05:29:58;14.80;57.00
19060;DHT22;9663;48.996;8.334;2023-03-14T05:32:23;15.30;57.10
19060;DHT22;9663;48.996;8.334;2023-03-14T05:34:49;14.50;56.90
19060;DHT22;9663;48.996;8.334;2023-03-14T05:37:15;14.00;56.50
19060;DHT22;9663;48.996;8.334;2023-03-14T05:39:40;14.30;56.00
19060;DHT22;9663;48.996;8.334;2023-03-14T05:42:06;14.40;56.70
19060;DHT22;9663;48.996;8.334;2023-03-14T05:44:31;14.00;55.80
19060;DHT22;9663;48.996;8.334;2023-03-14T05:46:57;14.30;56.60
19060;DHT22;9663;48.996;8.334;2023-03-14T05:49:23;15.60;57.30
19060;DHT22;9663;48.996;8.334;2023-03-14T05:51:48;15.40;57.10
19060;DHT22;9663;48.996;8.334;2023-03-14T05:54:14;13.90;56.40
19060;DHT22;9663;48.996;8.334;2023-03-14T05:56:40;14.40;56.60
19060;DHT22;9663;48.996;8.334;2023-03-14T05:59:05;14.20;56.60
19060;DHT22;9663;48.996;8.334;2023-03-14T06:01:34;14.40;56.70
19060;DHT22;9663;48.996;8.334;2023-03-14T06:03:59;15.60;57.40
19060;DHT22;9663;48.996;8.334;2023-03-14T06:06:25;14.30;56.80
19060;DHT22;9663;48.996;8.334;2023-03-14T06:08:51;14.70;57.20
19060;DHT22;9663;48.996;8.334;2023-03-14T06:11:16;13.80;56.60
19060;DHT22;9663;48.996;8.334;2023-03-14T06:13:42;13.60;56.00
19060;DHT22;9663;48.996;8.334;2023-03-14T06:16:08;13.80;56.90
19060;DHT22;9663;48.996;8.334;2023-03-14T06:18:34;13.60;56.90
19060;DHT22;9663;48.996;8.334;2023-03-14T06:21:00;14.40;57.30
19060;DHT22;9663;48.996;8.334;2023-03-14T06:23:26;13.70;57.00
19060;DHT22;9663;48.996;8.334;2023-03-14T06:25:52;14.80;57.40
19060;DHT22;9663;48.996;8.334;2023-03-14T06:28:18;13.60;57.00
19060;DHT22;9663;48.996;8.334;2023-03-14T06:30:44;13.50;57.20
19060;DHT22;9663;48.996;8.334;2023-03-14T06:33:09;14.50;57.30
19060;DHT22;9663;48.996;8.334;2023-03-14T06:35:35;14.90;57.60
19060;DHT22;9663;48.996;8.334;2023-03-14T06:38:01;13.70;57.00
19060;DHT22;9663;48.996;8.334;2023-03-14T06:40:26;15.10;57.60
19060;DHT22;9663;48.996;8.334;2023-03-14T06:42:52;13.70;57.10
19060;DHT22;9663;48.996;8.334;2023-03-14T06:45:18;14.70;57.50
19060;DHT22;9663;48.996;8.334;2023-03-14T06:47:43;13.50;56.70
19060;DHT22;9663;48.996;8.334;2023-03-14T06:50:10;13.90;57.20
19060;DHT22;9663;48.996;8.334;2023-03-14T06:52:36;13.70;57.00
19060;DHT22;9663;48.996;8.334;2023-03-14T06:55:03;14.30;57.10
19060;DHT22;9663;48.996;8.334;2023-03-14T06:57:29;13.90;56.70
19060;DHT22;9663;48.996;8.334;2023-03-14T06:59:54;14.30;56.90
19060;DHT22;9663;48.996;8.334;2023-03-14T07:02:20;14.70;57.20
19060;DHT22;9663;48.996;8.334;2023-03-14T07:04:47;14.80;57.20
19060;DHT22;9663;48.996;8.334;2023-03-14T07:07:12;13.80;55.90
19060;DHT22;9663;48.996;8.334;2023-03-14T07:09:38;16.20;57.80
19060;DHT22;9663;48.996;8.334;2023-03-14T07:12:04;14.30;56.50
19060;DHT22;9663;48.996;8.334;2023-03-14T07:14:30;13.90;56.40
19060;DHT22;9663;48.996;8.334;2023-03-14T07:16:56;13.90;56.40
19060;DHT22;9663;48.996;8.334;2023-03-14T07:19:22;16.80;57.80
19060;DHT22;9663;48.996;8.334;2023-03-14T07:21:48;13.90;56.30
19060;DHT22;9663;48.996;8.334;2023-03-14T07:24:13;14.50;56.50
19060;DHT22;9663;48.996;8.334;2023-03-14T07:26:39;14.80;56.50
19060;DHT22;9663;48.996;8.334;2023-03-14T07:29:05;14.40;56.30
19060;DHT22;9663;48.996;8.334;2023-03-14T07:31:30;15.40;56.60
19060;DHT22;9663;48.996;8.334;2023-03-14T07:33:57;14.00;55.80
19060;DHT22;9663;48.996;8.334;2023-03-14T07:36:23;13.70;55.60
19060;DHT22;9663;48.996;8.334;2023-03-14T07:38:49;14.30;55.90
19060;DHT22;9663;48.996;8.334;2023-03-14T07:41:14;14.90;55.40
19060;DHT22;9663;48.996;8.334;2023-03-14T07:43:40;14.90;56.00
19060;DHT22;9663;48.996;8.334;2023-03-14T07:46:06;15.70;56.40
19060;DHT22;9663;48.996;8.334;2023-03-14T07:48:33;15.60;56.30
19060;DHT22;9663;48.996;8.334;2023-03-14T07:50:59;14.80;55.90
19060;DHT22;9663;48.996;8.334;2023-03-14T07:53:25;15.20;55.90
19060;DHT22;9663;48.996;8.334;2023-03-14T07:55:52;15.50;55.80
19060;DHT22;9663;48.996;8.334;2023-03-14T07:58:19;15.90;55.20
19060;DHT22;9663;48.996;8.334;2023-03-14T08:00:47;14.90;55.30
19060;DHT22;9663;48.996;8.334;2023-03-14T08:03:13;15.30;54.60
19060;DHT22;9663;48.996;8.334;2023-03-14T08:05:39;15.60;55.30
19060;DHT22;9663;48.996;8.334;2023-03-14T08:08:05;15.40;55.20
19060;DHT22;9663;48.996;8.334;2023-03-14T08:10:31;15.40;54.50
19060;DHT22;9663;48.996;8.334;2023-03-14T08:12:58;15.90;54.70
19060;DHT22;9663;48.996;8.334;2023-03-14T08:15:26;15.50;55.90
19060;DHT22;9663;48.996;8.334;2023-03-14T08:17:53;15.60;55.30
19060;DHT22;9663;48.996;8.334;2023-03-14T08:20:24;15.10;55.20
19060;DHT22;9663;48.996;8.334;2023-03-14T08:22:53;15.90;55.50
19060;DHT22;9663;48.996;8.334;2023-03-14T08:25:22;14.50;55.00
19060;DHT22;9663;48.996;8.334;2023-03-14T08:27:47;15.10;55.60
19060;DHT22;9663;48.996;8.334;2023-03-14T08:30:15;15.10;55.60
19060;DHT22;9663;48.996;8.334;2023-03-14T08:32:41;15.10;55.60
19060;DHT22;9663;48.996;8.334;2023-03-14T08:35:07;15.40;55.90
19060;DHT22;9663;48.996;8.334;2023-03-14T08:37:34;15.60;56.20
19060;DHT22;9663;48.996;8.334;2023-03-14T08:40:02;14.70;55.90
19060;DHT22;9663;48.996;8.334;2023-03-14T08:42:32;15.40;56.10
19060;DHT22;9663;48.996;8.334;2023-03-14T08:44:59;15.60;56.30
19060;DHT22;9663;48.996;8.334;2023-03-14T08:47:24;14.90;56.10
19060;DHT22;9663;48.996;8.334;2023-03-14T08:49:50;15.60;56.40
19060;DHT22;9663;48.996;8.334;2023-03-14T08:52:15;15.60;55.60
19060;DHT22;9663;48.996;8.334;2023-03-14T08:54:44;16.10;56.40
19060;DHT22;9663;48.996;8.334;2023-03-14T08:57:10;15.40;56.00
19060;DHT22;9663;48.996;8.334;2023-03-14T08:59:36;15.30;55.90
19060;DHT22;9663;48.996;8.334;2023-03-14T09:02:02;16.10;56.10
19060;DHT22;9663;48.996;8.334;2023-03-14T09:04:32;15.50;55.70
19060;DHT22;9663;48.996;8.334;2023-03-14T09:06:59;15.90;55.70
19060;DHT22;9663;48.996;8.334;2023-03-14T09:09:25;15.80;56.50
19060;DHT22;9663;48.996;8.334;2023-03-14T09:11:54;15.90;56.10
19060;DHT22;9663;48.996;8.334;2023-03-14T09:14:19;15.60;55.90
19060;DHT22;9663;48.996;8.334;2023-03-14T09:16:45;16.80;56.50
19060;DHT22;9663;48.996;8.334;2023-03-14T09:19:11;15.50;55.80
19060;DHT22;9663;48.996;8.334;2023-03-14T09:21:36;15.30;55.50
19060;DHT22;9663;48.996;8.334;2023-03-14T09:24:04;16.10;55.90
19060;DHT22;9663;48.996;8.334;2023-03-14T09:26:30;15.90;55.50
19060;DHT22;9663;48.996;8.334;2023-03-14T09:28:56;17.70;56.20
19060;DHT22;9663;48.996;8.334;2023-03-14T09:31:22;17.10;55.70
19060;DHT22;9663;48.996;8.334;2023-03-14T09:33:48;16.10;54.10
19060;DHT22;9663;48.996;8.334;2023-03-14T09:36:13;16.10;54.80
19060;DHT22;9663;48.996;8.334;2023-03-14T09:38:39;16.30;54.70
19060;DHT22;9663;48.996;8.334;2023-03-14T09:41:26;15.60;54.30
19060;DHT22;9663;48.996;8.334;2023-03-14T09:44:05;16.20;54.70
19060;DHT22;9663;48.996;8.334;2023-03-14T09:46:37;16.10;54.30
19060;DHT22;9663;48.996;8.334;2023-03-14T09:49:27;16.00;54.40
19060;DHT22;9663;48.996;8.334;2023-03-14T09:51:58;15.10;54.30
19060;DHT22;9663;48.996;8.334;2023-03-14T09:54:31;15.80;54.60
19060;DHT22;9663;48.996;8.334;2023-03-14T09:57:02;18.40;56.00
19060;DHT22;9663;48.996;8.334;2023-03-14T09:59:29;16.30;55.20
19060;DHT22;9663;48.996;8.334;2023-03-14T10:02:00;16.10;55.20
19060;DHT22;9663;48.996;8.334;2023-03-14T10:04:27;15.90;55.00
19060;DHT22;9663;48.996;8.334;2023-03-14T10:06:55;16.60;55.50
19060;DHT22;9663;48.996;8.334;2023-03-14T10:09:23;15.90;55.00
19060;DHT22;9663;48.996;8.334;2023-03-14T10:11:57;17.40;56.50
19060;DHT22;9663;48.996;8.334;2023-03-14T10:14:33;16.10;55.30
19060;DHT22;9663;48.996;8.334;2023-03-14T10:17:07;16.10;55.30
19060;DHT22;9663;48.996;8.334;2023-03-14T10:19:35;16.40;55.50
19060;DHT22;9663;48.996;8.334;2023-03-14T10:22:04;15.90;55.20
19060;DHT22;9663;48.996;8.334;2023-03-14T10:24:33;15.70;55.20
19060;DHT22;9663;48.996;8.334;2023-03-14T10:27:08;15.60;55.30
19060;DHT22;9663;48.996;8.334;2023-03-14T10:29:58;15.80;55.70
19060;DHT22;9663;48.996;8.334;2023-03-14T10:32:38;16.20;56.10
19060;DHT22;9663;48.996;8.334;2023-03-14T10:37:56;15.70;56.00
19060;DHT22;9663;48.996;8.334;2023-03-14T10:40:28;16.20;57.10
19060;DHT22;9663;48.996;8.334;2023-03-14T10:42:58;15.60;55.80
19060;DHT22;9663;48.996;8.334;2023-03-14T10:45:30;14.80;55.80
19060;DHT22;9663;48.996;8.334;2023-03-14T10:48:17;16.00;56.80
19060;DHT22;9663;48.996;8.334;2023-03-14T10:53:45;15.50;56.70
19060;DHT22;9663;48.996;8.334;2023-03-14T10:56:23;15.30;56.70
19060;DHT22;9663;48.996;8.334;2023-03-14T10:58:57;14.80;57.30
19060;DHT22;9663;48.996;8.334;2023-03-14T11:01:50;14.60;57.10
19060;DHT22;9663;48.996;8.334;2023-03-14T11:04:43;14.60;57.50
19060;DHT22;9663;48.996;8.334;2023-03-14T11:07:40;14.90;58.20
19060;DHT22;9663;48.996;8.334;2023-03-14T11:10:29;14.40;57.60
19060;DHT22;9663;48.996;8.334;2023-03-14T11:22:11;12.70;58.30
19060;DHT22;9663;48.996;8.334;2023-03-14T11:24:55;12.70;58.70
19060;DHT22;9663;48.996;8.334;2023-03-14T11:27:44;12.50;59.50
19060;DHT22;9663;48.996;8.334;2023-03-14T11:38:49;14.30;59.00
19060;DHT22;9663;48.996;8.334;2023-03-14T11:41:27;14.10;58.00
19060;DHT22;9663;48.996;8.334;2023-03-14T11:44:15;13.60;57.50
19060;DHT22;9663;48.996;8.334;2023-03-14T11:46:52;13.10;58.40
19060;DHT22;9663;48.996;8.334;2023-03-14T11:49:36;14.40;58.30
19060;DHT22;9663;48.996;8.334;2023-03-14T11:52:13;13.40;58.30
19060;DHT22;9663;48.996;8.334;2023-03-14T11:54:55;13.90;58.20
19060;DHT22;9663;48.996;8.334;2023-03-14T11:57:27;13.10;57.80
19060;DHT22;9663;48.996;8.334;2023-03-14T12:08:42;14.40;58.60
19060;DHT22;9663;48.996;8.334;2023-03-14T12:11:36;12.50;58.00
19060;DHT22;9663;48.996;8.334;2023-03-14T12:14:21;12.90;57.90
19060;DHT22;9663;48.996;8.334;2023-03-14T12:16:57;12.70;58.00
19060;DHT22;9663;48.996;8.334;2023-03-14T12:19:35;13.10;57.80
19060;DHT22;9663;48.996;8.334;2023-03-14T12:25:04;13.30;57.80
19060;DHT22;9663;48.996;8.334;2023-03-14T12:33:11;13.00;57.10
19060;DHT22;9663;48.996;8.334;2023-03-14T12:35:40;13.30;56.20
19060;DHT22;9663;48.996;8.334;2023-03-14T12:47:00;15.00;53.90
19060;DHT22;9663;48.996;8.334;2023-03-14T12:50:08;15.10;53.10
19060;DHT22;9663;48.996;8.334;2023-03-14T12:52:54;15.40;52.60
19060;DHT22;9663;48.996;8.334;2023-03-14T12:55:51;15.10;51.90
19060;DHT22;9663;48.996;8.334;2023-03-14T13:01:03;15.10;52.50
19060;DHT22;9663;48.996;8.334;2023-03-14T13:03:57;16.10;51.40
19060;DHT22;9663;48.996;8.334;2023-03-14T13:06:46;14.90;50.00
19060;DHT22;9663;48.996;8.334;2023-03-14T13:11:56;14.80;50.40
19060;DHT22;9663;48.996;8.334;2023-03-14T13:14:29;15.10;49.40
19060;DHT22;9663;48.996;8.334;2023-03-14T13:16:59;15.30;50.60
19060;DHT22;9663;48.996;8.334;2023-03-14T13:19:28;14.40;50.40
19060;DHT22;9663;48.996;8.334;2023-03-14T13:22:23;14.40;49.30
19060;DHT22;9663;48.996;8.334;2023-03-14T13:25:02;14.50;50.50
19060;DHT22;9663;48.996;8.334;2023-03-14T13:27:34;14.40;50.80
19060;DHT22;9663;48.996;8.334;2023-03-14T13:30:23;13.60;50.20
19060;DHT22;9663;48.996;8.334;2023-03-14T13:32:53;14.00;50.00
19060;DHT22;9663;48.996;8.334;2023-03-14T13:35:25;14.00;50.10
19060;DHT22;9663;48.996;8.334;2023-03-14T13:38:01;13.80;50.10
19060;DHT22;9663;48.996;8.334;2023-03-14T13:40:34;13.60;50.70
19060;DHT22;9663;48.996;8.334;2023-03-14T13:43:16;13.60;50.00
19060;DHT22;9663;48.996;8.334;2023-03-14T13:48:34;14.20;48.90
19060;DHT22;9663;48.996;8.334;2023-03-14T13:51:06;14.30;50.20
19060;DHT22;9663;48.996;8.334;2023-03-14T13:53:48;13.90;49.40
19060;DHT22;9663;48.996;8.334;2023-03-14T13:56:18;13.70;49.00
19060;DHT22;9663;48.996;8.334;2023-03-14T13:58:49;14.00;50.10
19060;DHT22;9663;48.996;8.334;2023-03-14T14:03:49;13.70;49.90
19060;DHT22;9663;48.996;8.334;2023-03-14T14:06:38;14.30;49.50
19060;DHT22;9663;48.996;8.334;2023-03-14T14:12:06;14.30;47.30
19060;DHT22;9663;48.996;8.334;2023-03-14T14:14:53;15.00;48.90
19060;DHT22;9663;48.996;8.334;2023-03-14T14:17:46;15.00;48.70
19060;DHT22;9663;48.996;8.334;2023-03-14T14:22:47;16.00;48.00
19060;DHT22;9663;48.996;8.334;2023-03-14T14:25:15;15.80;48.60
19060;DHT22;9663;48.996;8.334;2023-03-14T14:27:44;17.10;49.40
19060;DHT22;9663;48.996;8.334;2023-03-14T14:32:43;18.00;45.10
19060;DHT22;9663;48.996;8.334;2023-03-14T14:35:21;18.90;44.10
19060;DHT22;9663;48.996;8.334;2023-03-14T14:37:49;18.10;42.50
19060;DHT22;9663;48.996;8.334;2023-03-14T14:40:21;17.70;42.90
19060;DHT22;9663;48.996;8.334;2023-03-14T14:42:50;17.30;42.40
19060;DHT22;9663;48.996;8.334;2023-03-14T14:45:19;17.00;42.00
19060;DHT22;9663;48.996;8.334;2023-03-14T14:47:50;16.20;42.60
19060;DHT22;9663;48.996;8.334;2023-03-14T14:50:30;17.60;44.10
19060;DHT22;9663;48.996;8.334;2023-03-14T14:53:19;16.20;43.90
19060;DHT22;9663;48.996;8.334;2023-03-14T14:55:55;16.40;44.40
19060;DHT22;9663;48.996;8.334;2023-03-14T15:03:39;15.00;44.60
19060;DHT22;9663;48.996;8.334;2023-03-14T15:06:12;14.40;45.00
19060;DHT22;9663;48.996;8.334;2023-03-14T15:08:40;14.20;46.00
19060;DHT22;9663;48.996;8.334;2023-03-14T15:11:06;14.50;46.80
19060;DHT22;9663;48.996;8.334;2023-03-14T15:13:39;14.30;47.00
19060;DHT22;9663;48.996;8.334;2023-03-14T15:16:10;14.10;47.50
19060;DHT22;9663;48.996;8.334;2023-03-14T15:18:37;14.80;47.50
19060;DHT22;9663;48.996;8.334;2023-03-14T15:21:03;14.50;47.90
19060;DHT22;9663;48.996;8.334;2023-03-14T15:23:29;13.40;47.30
19060;DHT22;9663;48.996;8.334;2023-03-14T15:25:54;14.50;48.20
19060;DHT22;9663;48.996;8.334;2023-03-14T15:28:23;15.60;48.80
19060;DHT22;9663;48.996;8.334;2023-03-14T15:30:53;14.10;48.00
19060;DHT22;9663;48.996;8.334;2023-03-14T15:33:20;13.70;47.60
19060;DHT22;9663;48.996;8.334;2023-03-14T15:35:47;13.10;47.90
19060;DHT22;9663;48.996;8.334;2023-03-14T15:38:17;13.50;48.00
19060;DHT22;9663;48.996;8.334;2023-03-14T15:40:46;13.40;47.80
19060;DHT22;9663;48.996;8.334;2023-03-14T15:43:12;13.90;48.30
19060;DHT22;9663;48.996;8.334;2023-03-14T15:45:38;13.70;48.30
19060;DHT22;9663;48.996;8.334;2023-03-14T15:48:04;13.90;48.40
19060;DHT22;9663;48.996;8.334;2023-03-14T15:50:30;13.70;48.40
19060;DHT22;9663;48.996;8.334;2023-03-14T15:52:55;13.60;48.70
19060;DHT22;9663;48.996;8.334;2023-03-14T15:55:22;12.90;48.30
19060;DHT22;9663;48.996;8.334;2023-03-14T15:57:48;13.20;48.60
19060;DHT22;9663;48.996;8.334;2023-03-14T16:00:19;11.90;48.10
19060;DHT22;9663;48.996;8.334;2023-03-14T16:02:47;13.10;48.90
19060;DHT22;9663;48.996;8.334;2023-03-14T16:05:14;14.00;49.20
19060;DHT22;9663;48.996;8.334;2023-03-14T16:07:40;12.90;49.20
19060;DHT22;9663;48.996;8.334;2023-03-14T16:10:07;13.40;49.50
19060;DHT22;9663;48.996;8.334;2023-03-14T16:12:35;13.00;49.60
19060;DHT22;9663;48.996;8.334;2023-03-14T16:17:29;13.00;49.10
19060;DHT22;9663;48.996;8.334;2023-03-14T16:19:56;14.00;50.90
19060;DHT22;9663;48.996;8.334;2023-03-14T16:22:21;12.10;50.00
19060;DHT22;9663;48.996;8.334;2023-03-14T16:24:47;11.80;49.80
19060;DHT22;9663;48.996;8.334;2023-03-14T16:27:13;12.90;50.60
19060;DHT22;9663;48.996;8.334;2023-03-14T16:29:38;12.10;50.50
19060;DHT22;9663;48.996;8.334;2023-03-14T16:32:04;11.30;50.10
19060;DHT22;9663;48.996;8.334;2023-03-14T16:34:30;10.70;50.20
19060;DHT22;9663;48.996;8.334;2023-03-14T16:36:56;12.10;50.90
19060;DHT22;9663;48.996;8.334;2023-03-14T16:39:21;11.90;50.90
19060;DHT22;9663;48.996;8.334;2023-03-14T16:41:47;11.10;50.90
19060;DHT22;9663;48.996;8.334;2023-03-14T16:44:13;11.90;51.30
19060;DHT22;9663;48.996;8.334;2023-03-14T16:46:39;11.80;50.10
19060;DHT22;9663;48.996;8.334;2023-03-14T16:49:06;11.70;51.60
19060;DHT22;9663;48.996;8.334;2023-03-14T16:51:32;11.40;51.30
19060;DHT22;9663;48.996;8.334;2023-03-14T16:53:57;11.30;51.60
19060;DHT22;9663;48.996;8.334;2023-03-14T16:56:23;11.10;51.70
19060;DHT22;9663;48.996;8.334;2023-03-14T16:58:49;10.60;51.40
19060;DHT22;9663;48.996;8.334;2023-03-14T17:01:16;11.70;52.20
19060;DHT22;9663;48.996;8.334;2023-03-14T17:03:47;12.00;52.60
19060;DHT22;9663;48.996;8.334;2023-03-14T17:06:20;11.60;52.40
19060;DHT22;9663;48.996;8.334;2023-03-14T17:08:51;11.00;52.10
19060;DHT22;9663;48.996;8.334;2023-03-14T17:11:18;11.20;52.70
19060;DHT22;9663;48.996;8.334;2023-03-14T17:13:44;11.20;52.70
19060;DHT22;9663;48.996;8.334;2023-03-14T17:16:09;12.40;53.60
19060;DHT22;9663;48.996;8.334;2023-03-14T17:18:36;11.70;53.30
19060;DHT22;9663;48.996;8.334;2023-03-14T17:21:03;10.50;52.40